sensor_id;sensor_type;location;lat;lon;timestamp;pressure;altitude;pressure_sealevel;temperature;humidity
44992;BME280;56865;51.618;7.406;2023-01-30T00:00:29;100929.69;;;4.88;100.00
44992;BME280;56865;51.618;7.406;2023-01-30T00:03:01;100924.34;;;4.98;100.00
44992;BME280;56865;51.618;7.406;2023-01-30T00:05:36;100923.03;;;5.05;100.00
44992;BME280;56865;51.618;7.406;2023-01-30T00:08:06;100934.69;;;5.03;100.00
44992;BME280;56865;51.618;7.406;2023-01-30T00:10:51;100939.28;;;5.10;100.00
44992;BME280;56865;51.618;7.406;2023-01-30T00:13:26;100940.78;;;5.07;100.00
44992;BME280;56865;51.618;7.406;2023-01-30T00:16:11;100942.59;;;5.09;100.00
44992;BME280;56865;51.618;7.406;2023-01-30T00:21:53;100937.41;;;5.06;100.00
44992;BME280;56865;51.618;7.406;2023-01-30T00:24:29;100922.72;;;5.15;100.00
44992;BME280;56865;51.618;7.406;2023-01-30T00:27:06;100927.47;;;5.26;100.00
44992;BME280;56865;51.618;7.406;2023-01-30T00:29:40;100919.88;;;5.26;100.00
44992;BME280;56865;51.618;7.406;2023-01-30T00:32:33;100914.44;;;5.34;100.00
44992;BME280;56865;51.618;7.406;2023-01-30T00:35:14;100906.97;;;5.19;100.00
44992;BME280;56865;51.618;7.406;2023-01-30T00:38:03;100883.50;;;5.22;100.00
44992;BME280;56865;51.618;7.406;2023-01-30T00:40:36;100899.16;;;5.48;100.00
44992;BME280;56865;51.618;7.406;2023-01-30T00:43:13;100887.22;;;5.45;100.00
44992;BME280;56865;51.618;7.406;2023-01-30T00:46:23;100886.19;;;5.42;100.00
44992;BME280;56865;51.618;7.406;2023-01-30T00:52:23;100893.75;;;5.58;100.00
44992;BME280;56865;51.618;7.406;2023-01-30T00:55:01;100888.38;;;5.52;100.00
44992;BME280;56865;51.618;7.406;2023-01-30T00:57:44;100885.56;;;5.62;100.00
44992;BME280;56865;51.618;7.406;2023-01-30T01:00:28;100878.44;;;5.55;100.00
44992;BME280;56865;51.618;7.406;2023-01-30T01:03:20;100870.47;;;5.47;100.00
44992;BME280;56865;51.618;7.406;2023-01-30T01:05:55;100867.22;;;5.66;100.00
44992;BME280;56865;51.618;7.406;2023-01-30T01:08:31;100860.50;;;5.50;100.00
44992;BME280;56865;51.618;7.406;2023-01-30T01:11:24;100864.84;;;5.53;100.00
44992;BME280;56865;51.618;7.406;2023-01-30T01:14:00;100848.94;;;5.72;100.00
44992;BME280;56865;51.618;7.406;2023-01-30T01:16:36;100839.75;;;5.56;100.00
44992;BME280;56865;51.618;7.406;2023-01-30T01:19:11;100845.13;;;5.62;100.00
44992;BME280;56865;51.618;7.406;2023-01-30T01:21:48;100815.31;;;6.08;100.00
44992;BME280;56865;51.618;7.406;2023-01-30T01:24:39;100829.63;;;6.25;100.00
44992;BME280;56865;51.618;7.406;2023-01-30T01:27:11;100821.03;;;6.22;100.00
44992;BME280;56865;51.618;7.406;2023-01-30T01:29:43;100813.13;;;6.15;100.00
44992;BME280;56865;51.618;7.406;2023-01-30T01:32:18;100818.19;;;6.15;100.00
44992;BME280;56865;51.618;7.406;2023-01-30T01:34:49;100810.97;;;6.05;100.00
44992;BME280;56865;51.618;7.406;2023-01-30T01:37:19;100800.72;;;6.20;100.00
44992;BME280;56865;51.618;7.406;2023-01-30T01:39:51;100797.66;;;6.09;100.00
44992;BME280;56865;51.618;7.406;2023-01-30T01:42:34;100807.16;;;5.97;100.00
44992;BME280;56865;51.618;7.406;2023-01-30T01:45:12;100807.34;;;6.00;100.00
44992;BME280;56865;51.618;7.406;2023-01-30T01:47:48;100799.97;;;6.05;100.00
44992;BME280;56865;51.618;7.406;2023-01-30T01:50:21;100791.75;;;5.92;100.00
44992;BME280;56865;51.618;7.406;2023-01-30T01:52:56;100790.84;;;5.90;100.00
44992;BME280;56865;51.618;7.406;2023-01-30T01:55:28;100778.81;;;6.03;100.00
44992;BME280;56865;51.618;7.406;2023-01-30T01:58:00;100780.00;;;5.93;100.00
44992;BME280;56865;51.618;7.406;2023-01-30T02:00:36;100773.16;;;6.08;100.00
44992;BME280;56865;51.618;7.406;2023-01-30T02:03:13;100761.63;;;5.97;100.00
44992;BME280;56865;51.618;7.406;2023-01-30T02:05:47;100758.00;;;5.92;100.00
44992;BME280;56865;51.618;7.406;2023-01-30T02:08:26;100766.69;;;5.97;100.00
44992;BME280;56865;51.618;7.406;2023-01-30T02:10:59;100771.13;;;6.01;100.00
44992;BME280;56865;51.618;7.406;2023-01-30T02:13:38;100754.00;;;6.13;100.00
44992;BME280;56865;51.618;7.406;2023-01-30T02:16:10;100750.88;;;6.01;100.00
44992;BME280;56865;51.618;7.406;2023-01-30T02:18:47;100743.63;;;6.09;100.00
44992;BME280;56865;51.618;7.406;2023-01-30T02:21:31;100727.09;;;6.15;100.00
44992;BME280;56865;51.618;7.406;2023-01-30T02:26:59;100708.22;;;6.09;100.00
44992;BME280;56865;51.618;7.406;2023-01-30T02:29:45;100702.09;;;6.04;100.00
44992;BME280;56865;51.618;7.406;2023-01-30T02:32:22;100696.75;;;6.15;100.00
44992;BME280;56865;51.618;7.406;2023-01-30T02:35:02;100697.66;;;6.17;100.00
44992;BME280;56865;51.618;7.406;2023-01-30T02:37:38;100698.66;;;6.21;100.00
44992;BME280;56865;51.618;7.406;2023-01-30T02:40:25;100704.94;;;6.29;100.00
44992;BME280;56865;51.618;7.406;2023-01-30T02:43:06;100698.09;;;6.27;100.00
44992;BME280;56865;51.618;7.406;2023-01-30T02:45:41;100699.94;;;6.31;100.00
44992;BME280;56865;51.618;7.406;2023-01-30T02:48:19;100689.78;;;6.29;100.00
44992;BME280;56865;51.618;7.406;2023-01-30T02:50:57;100685.44;;;6.46;100.00
44992;BME280;56865;51.618;7.406;2023-01-30T02:53:34;100683.97;;;6.32;100.00
44992;BME280;56865;51.618;7.406;2023-01-30T02:56:14;100695.97;;;6.36;100.00
44992;BME280;56865;51.618;7.406;2023-01-30T02:58:47;100687.06;;;6.44;100.00
44992;BME280;56865;51.618;7.406;2023-01-30T03:07:08;100681.25;;;6.47;100.00
44992;BME280;56865;51.618;7.406;2023-01-30T03:09:44;100668.09;;;6.54;100.00
44992;BME280;56865;51.618;7.406;2023-01-30T03:12:21;100658.53;;;6.48;100.00
44992;BME280;56865;51.618;7.406;2023-01-30T03:14:59;100666.75;;;6.43;100.00
44992;BME280;56865;51.618;7.406;2023-01-30T03:17:45;100653.53;;;6.50;100.00
44992;BME280;56865;51.618;7.406;2023-01-30T03:20:19;100652.19;;;6.78;100.00
44992;BME280;56865;51.618;7.406;2023-01-30T03:23:04;100660.75;;;6.60;100.00
44992;BME280;56865;51.618;7.406;2023-01-30T03:25:38;100644.25;;;6.70;100.00
44992;BME280;56865;51.618;7.406;2023-01-30T03:28:20;100647.41;;;6.64;100.00
44992;BME280;56865;51.618;7.406;2023-01-30T03:30:53;100651.66;;;6.85;100.00
44992;BME280;56865;51.618;7.406;2023-01-30T03:33:29;100649.66;;;6.78;100.00
